Terminal Aerodrome Forecast
Issued by NWS

Home | Current Version | Previous Version | Text Only | Print | Product List | Glossary On
Versions: 1 2 3 4 5 6 7 8 9 10 11 12 13 14 15 16 17 18 19 20 21 22 23 24
000
FTUS41 KBTV 201100
TAFPBG
TAF
KPBG 201121Z 2012/2112 VRB04KT P6SM SCT050
     FM201400 15005KT P6SM SCT150
     FM202000 15007KT P6SM VCSH SCT050 BKN100
     FM210300 14005KT P6SM -RA BKN045=

USA.gov is the U.S. government's official web portal to all federal, state and local government web resources and services.